Time;durP1;ratioP1;P1;durP2;ratioP2;P2;SDS_P1;SDS_P2;PMS_P1;PMS_P2;Temp;Humidity;BMP_temperature;BMP_pressure;BME280_temperature;BME280_humidity;BME280_pressure;Samples;Min_cycle;Max_cycle;Signal;HPM_P1;HPM_P2
2023/03/27 00:02:14;;;;;;;9.23;4.30;;;6.50;99.90;;;5.53;100.00;96263.81;5049920;28;20399;-74
2023/03/27 00:04:41;;;;;;;7.18;4.10;;;6.50;99.90;;;5.47;100.00;96273.47;5050337;28;20413;-74
2023/03/27 00:07:08;;;;;;;6.63;4.22;;;6.60;99.90;;;5.55;100.00;96280.13;5050370;28;20406;-73
2023/03/27 00:09:36;;;;;;;7.97;4.70;;;6.60;99.90;;;5.49;100.00;96284.50;5050125;28;20910;-74
2023/03/27 00:12:02;;;;;;;6.90;4.90;;;6.60;99.90;;;5.50;100.00;96296.59;5049870;28;20440;-73
2023/03/27 00:14:29;;;;;;;12.57;7.38;;;6.60;99.90;;;5.60;100.00;96290.66;5050301;28;20435;-73
2023/03/27 00:16:58;;;;;;;12.95;7.50;;;6.60;99.90;;;5.54;100.00;96300.31;5049480;28;21541;-73
2023/03/27 00:19:24;;;;;;;12.63;7.10;;;6.60;99.90;;;5.46;100.00;96298.13;5050364;28;20413;-73
2023/03/27 00:21:50;;;;;;;13.73;7.60;;;6.50;99.90;;;5.44;100.00;96297.56;5049626;28;20405;-73
2023/03/27 00:24:16;;;;;;;18.48;9.18;;;6.50;99.90;;;5.43;100.00;96309.09;5050130;28;20401;-73
2023/03/27 00:26:43;;;;;;;16.23;8.57;;;6.50;99.90;;;5.47;100.00;96307.59;5050088;28;20409;-73
2023/03/27 00:29:09;;;;;;;19.80;10.18;;;6.60;99.90;;;5.47;100.00;96310.22;5050119;28;20429;-74
2023/03/27 00:31:36;;;;;;;22.55;11.00;;;6.50;99.90;;;5.52;100.00;96315.50;5049660;28;20425;-74
2023/03/27 00:34:02;;;;;;;20.07;11.30;;;6.50;99.90;;;5.47;100.00;96319.91;5050194;28;20417;-73
2023/03/27 00:36:28;;;;;;;21.90;10.82;;;6.60;99.90;;;5.44;100.00;96319.34;5050178;28;20463;-74
2023/03/27 00:38:54;;;;;;;25.88;11.88;;;6.50;99.90;;;5.41;100.00;96334.81;5050020;28;20436;-73
2023/03/27 00:41:21;;;;;;;24.25;11.85;;;6.50;99.90;;;5.40;100.00;96334.00;5049783;28;20890;-73
2023/03/27 00:43:49;;;;;;;23.63;11.73;;;6.50;99.90;;;5.45;100.00;96343.78;5049998;28;20425;-73
2023/03/27 00:46:36;;;;;;;23.38;11.10;;;6.50;99.90;;;5.51;100.00;96348.03;5049933;28;20768;-72
2023/03/27 00:49:08;;;;;;;21.42;10.60;;;6.50;99.90;;;5.47;100.00;96360.06;5049994;28;20398;-72
2023/03/27 00:51:37;;;;;;;21.23;10.18;;;6.50;99.90;;;5.44;100.00;96363.97;5049600;28;20933;-73
2023/03/27 00:54:05;;;;;;;29.58;12.38;;;6.50;99.90;;;5.44;100.00;96365.78;5049975;28;20413;-73
2023/03/27 00:56:32;;;;;;;23.67;10.90;;;6.50;99.90;;;5.43;100.00;96366.81;5051023;28;20404;-73
2023/03/27 00:59:05;;;;;;;19.93;10.23;;;6.50;99.90;;;5.40;100.00;96370.75;5053686;28;20926;-73
2023/03/27 01:01:31;;;;;;;24.17;10.68;;;6.40;99.90;;;5.34;100.00;96366.44;5053625;28;20862;-73
2023/03/27 01:04:01;;;;;;;21.63;9.85;;;6.50;99.90;;;5.37;100.00;96380.94;5053640;28;20414;-73
2023/03/27 01:06:30;;;;;;;15.63;7.60;;;6.40;99.90;;;5.39;100.00;96384.91;5053611;28;20401;-73
2023/03/27 01:08:56;;;;;;;18.48;7.78;;;6.40;99.90;;;5.34;100.00;96392.69;5053482;28;20393;-73
2023/03/27 01:11:38;;;;;;;11.35;6.00;;;6.40;99.90;;;5.31;100.00;96389.78;5053250;28;20405;-74
2023/03/27 01:14:16;;;;;;;16.40;6.63;;;6.30;99.90;;;5.26;100.00;96398.34;5053503;28;20475;-73
2023/03/27 01:16:59;;;;;;;12.40;6.45;;;6.40;99.90;;;5.27;100.00;96396.53;5053474;28;20994;-73
2023/03/27 01:19:56;;;;;;;14.75;6.78;;;6.30;99.90;;;5.22;100.00;96401.72;5053454;28;20389;-73
2023/03/27 01:23:03;;;;;;;17.77;6.85;;;6.30;99.90;;;5.18;100.00;96408.47;5052811;28;20448;-73
2023/03/27 01:25:57;;;;;;;20.98;9.40;;;6.30;99.90;;;5.26;100.00;96415.94;5053291;28;20394;-73
2023/03/27 01:28:42;;;;;;;34.33;12.80;;;6.30;99.90;;;5.17;100.00;96409.50;5053142;28;20408;-74
2023/03/27 01:31:29;;;;;;;26.98;11.55;;;6.30;99.90;;;5.13;100.00;96419.69;5053138;28;20424;-74
2023/03/27 01:34:20;;;;;;;34.58;13.20;;;6.20;99.90;;;5.21;100.00;96423.72;5052954;28;20463;-73
2023/03/27 01:37:27;;;;;;;35.40;14.15;;;6.30;99.90;;;5.23;100.00;96432.97;5053102;28;20397;-73
2023/03/27 01:40:03;;;;;;;30.10;12.30;;;6.30;99.90;;;5.24;100.00;96434.53;5049508;28;21157;-73
2023/03/27 01:42:35;;;;;;;35.10;12.60;;;6.30;99.90;;;5.15;100.00;96441.22;5052853;28;20413;-73
2023/03/27 01:45:07;;;;;;;33.08;13.23;;;6.30;99.90;;;5.14;100.00;96458.00;5053073;28;20490;-73
2023/03/27 01:47:45;;;;;;;29.13;11.67;;;6.30;99.90;;;5.15;100.00;96453.53;5052934;28;20484;-73
2023/03/27 01:50:20;;;;;;;28.92;11.55;;;6.20;99.90;;;5.18;100.00;96458.31;5053130;28;20402;-73
2023/03/27 01:52:54;;;;;;;25.50;10.55;;;6.20;99.90;;;5.13;100.00;96471.34;5052576;28;20789;-73
2023/03/27 01:55:27;;;;;;;25.55;9.77;;;6.20;99.90;;;5.06;100.00;96471.50;5052874;28;20402;-73
2023/03/27 01:57:59;;;;;;;26.35;10.13;;;6.10;99.90;;;5.05;100.00;96483.03;5052535;28;20413;-73
2023/03/27 02:00:27;;;;;;;23.52;10.85;;;6.10;99.90;;;4.93;100.00;96488.34;5052625;28;20398;-73
2023/03/27 02:02:57;;;;;;;23.30;9.43;;;6.00;99.90;;;4.93;100.00;96506.72;5034566;28;20429;-73
2023/03/27 02:05:31;;;;;;;30.33;10.98;;;6.00;99.90;;;4.94;100.00;96499.63;5052738;28;20405;-73
2023/03/27 02:08:06;;;;;;;29.20;11.05;;;6.00;99.90;;;4.87;100.00;96519.97;5052260;28;20412;-73
2023/03/27 02:10:40;;;;;;;40.10;12.50;;;5.90;99.90;;;4.81;100.00;96510.44;5052550;28;20527;-73
2023/03/27 02:13:12;;;;;;;45.47;14.38;;;5.90;99.90;;;4.80;100.00;96524.56;5052286;28;20749;-72
2023/03/27 02:15:42;;;;;;;60.67;16.55;;;5.90;99.90;;;4.73;100.00;96516.06;5052382;28;20479;-72
2023/03/27 02:18:17;;;;;;;64.45;16.90;;;5.80;99.90;;;4.61;100.00;96535.22;5052248;28;20413;-72
2023/03/27 02:20:44;;;;;;;61.08;18.42;;;5.70;99.90;;;4.63;100.00;96537.63;5052177;28;20770;-72
2023/03/27 02:23:10;;;;;;;71.97;19.40;;;5.70;99.90;;;4.58;100.00;96542.78;5052093;28;20484;-73
2023/03/27 02:25:40;;;;;;;62.10;19.33;;;5.70;99.90;;;4.58;100.00;96559.31;5052278;28;20934;-72
2023/03/27 02:28:35;;;;;;;74.20;20.20;;;5.60;99.90;;;4.48;100.00;96566.16;5052061;28;20448;-72
2023/03/27 02:31:13;;;;;;;74.50;21.42;;;5.60;99.90;;;4.40;100.00;96583.03;5034127;28;20439;-73
2023/03/27 02:33:57;;;;;;;73.05;22.05;;;5.50;99.90;;;4.37;100.00;96590.56;5051809;28;20459;-73
2023/03/27 02:36:34;;;;;;;83.05;23.75;;;5.50;99.90;;;4.29;100.00;96578.59;5051966;28;20450;-72
2023/03/27 02:39:07;;;;;;;84.53;23.65;;;5.50;99.90;;;4.28;100.00;96598.00;5051989;28;20480;-73
2023/03/27 02:41:40;;;;;;;93.80;24.02;;;5.40;99.90;;;4.24;100.00;96597.66;5051514;28;20474;-72
2023/03/27 02:44:12;;;;;;;87.27;23.30;;;5.40;99.90;;;4.25;100.00;96609.72;5051924;28;20545;-72
2023/03/27 02:46:47;;;;;;;109.43;26.17;;;5.30;99.90;;;4.19;100.00;96612.47;5051895;28;20515;-72
2023/03/27 02:49:20;;;;;;;92.53;26.83;;;5.40;99.90;;;4.16;100.00;96615.53;5051708;28;20422;-72
2023/03/27 02:51:54;;;;;;;122.70;29.10;;;5.30;99.90;;;4.18;100.00;96627.38;5051288;28;20410;-73
2023/03/27 02:54:25;;;;;;;109.93;30.60;;;5.30;99.90;;;4.14;100.00;96628.84;5051491;28;20474;-73
2023/03/27 02:56:56;;;;;;;113.22;30.05;;;5.20;99.90;;;4.00;100.00;96642.41;5051559;28;20420;-74
2023/03/27 02:59:29;;;;;;;120.77;29.63;;;5.10;99.90;;;3.91;100.00;96644.56;5051497;28;20921;-73
2023/03/27 03:01:56;;;;;;;106.53;32.08;;;5.10;99.90;;;3.88;100.00;96658.13;5050969;28;20401;-73
2023/03/27 03:04:27;;;;;;;115.32;30.10;;;4.90;99.90;;;3.83;100.00;96663.25;5051466;28;20771;-74
2023/03/27 03:06:54;;;;;;;116.28;30.83;;;5.00;99.90;;;3.79;100.00;96665.50;5051334;28;20455;-74
2023/03/27 03:09:20;;;;;;;103.60;27.60;;;4.90;99.90;;;3.72;100.00;96666.63;5051206;28;20398;-74
2023/03/27 03:11:50;;;;;;;103.00;27.70;;;4.90;99.90;;;3.76;100.00;96676.41;5050890;28;20911;-73
2023/03/27 03:14:21;;;;;;;87.60;26.20;;;4.90;99.90;;;3.83;100.00;96677.09;5051025;28;20819;-74
2023/03/27 03:16:47;;;;;;;103.72;27.75;;;5.00;99.90;;;3.78;100.00;96679.59;5051110;28;20425;-73
2023/03/27 03:19:13;;;;;;;102.47;30.00;;;5.00;99.90;;;3.79;100.00;96696.09;5050595;28;20496;-74
2023/03/27 03:21:39;;;;;;;109.50;29.20;;;5.00;99.90;;;3.75;100.00;96700.22;5050569;28;20851;-73
2023/03/27 03:24:06;;;;;;;114.50;27.73;;;4.90;99.90;;;3.68;100.00;96712.59;5051105;28;20413;-74
2023/03/27 03:26:32;;;;;;;103.57;26.30;;;4.80;99.90;;;3.61;100.00;96710.03;5051073;28;20791;-74
2023/03/27 03:28:59;;;;;;;80.38;22.80;;;4.80;99.90;;;3.55;100.00;96715.38;5051031;28;20484;-74
2023/03/27 03:31:27;;;;;;;92.18;21.73;;;4.70;99.90;;;3.52;100.00;96723.69;5050660;28;20487;-74
2023/03/27 03:33:53;;;;;;;94.95;22.25;;;4.70;99.90;;;3.39;100.00;96728.06;5050974;28;20417;-74
2023/03/27 03:36:19;;;;;;;103.73;23.53;;;4.70;99.90;;;3.44;100.00;96730.03;5050871;28;20402;-74
2023/03/27 03:38:45;;;;;;;78.65;19.90;;;4.60;99.90;;;3.43;100.00;96733.66;5032976;28;20723;-74
2023/03/27 03:41:11;;;;;;;82.82;20.65;;;4.70;99.90;;;3.45;100.00;96739.47;5050547;28;20480;-74
2023/03/27 03:43:37;;;;;;;69.40;18.98;;;4.60;99.90;;;3.40;100.00;96755.81;5050507;28;20484;-74
2023/03/27 03:46:03;;;;;;;68.55;17.98;;;4.60;99.90;;;3.41;100.00;96754.81;5050780;28;20891;-74
2023/03/27 03:48:30;;;;;;;63.08;17.90;;;4.60;99.90;;;3.43;100.00;96765.84;5050632;28;20399;-74
2023/03/27 03:50:56;;;;;;;84.43;18.63;;;4.60;99.90;;;3.38;100.00;96765.69;5050436;28;20410;-74
2023/03/27 03:53:22;;;;;;;78.65;20.92;;;4.60;99.90;;;3.37;100.00;96777.22;5050252;28;20417;-74
2023/03/27 03:55:52;;;;;;;67.77;19.33;;;4.60;99.90;;;3.36;100.00;96778.22;5050607;28;20398;-74
2023/03/27 03:58:18;;;;;;;69.20;19.00;;;4.60;99.90;;;3.45;100.00;96797.84;5050607;28;20394;-74
2023/03/27 04:00:45;;;;;;;74.30;19.67;;;4.60;99.90;;;3.39;100.00;96803.13;5050224;28;20405;-73
2023/03/27 04:03:13;;;;;;;77.50;20.47;;;4.60;99.90;;;3.40;100.00;96802.09;5050277;28;20816;-74
2023/03/27 04:05:41;;;;;;;84.67;21.93;;;4.60;99.90;;;3.38;100.00;96807.56;5050445;28;20791;-74
2023/03/27 04:08:07;;;;;;;79.47;19.92;;;4.60;99.90;;;3.34;100.00;96816.88;5050456;28;20402;-74
2023/03/27 04:10:36;;;;;;;62.20;17.90;;;4.60;99.90;;;3.40;100.00;96820.41;5050203;28;20412;-73
2023/03/27 04:13:02;;;;;;;57.78;17.20;;;4.60;99.90;;;3.35;100.00;96842.00;5049949;28;20440;-74
2023/03/27 04:15:28;;;;;;;72.47;19.67;;;4.50;99.90;;;3.25;100.00;96856.59;5050234;28;20448;-73
2023/03/27 04:17:56;;;;;;;71.40;20.63;;;4.50;99.90;;;3.17;100.00;96859.50;5050168;28;20405;-73
2023/03/27 04:23:01;;;;;;;73.40;21.20;;;4.30;99.90;;;3.21;100.00;96864.09;5047558;28;20428;-72
2023/03/27 04:25:27;;;;;;;76.93;21.83;;;4.40;99.90;;;3.15;100.00;96864.97;5050053;28;20806;-73
2023/03/27 04:27:55;;;;;;;77.78;22.00;;;4.30;99.90;;;3.10;100.00;96881.28;5050019;28;20474;-75
2023/03/27 04:30:23;;;;;;;67.20;20.80;;;4.30;99.90;;;2.98;100.00;96884.84;5050419;28;20409;-72
2023/03/27 04:32:50;;;;;;;65.80;19.83;;;4.10;99.90;;;2.91;100.00;96899.78;5034115;28;20443;-72
2023/03/27 04:35:17;;;;;;;77.13;21.77;;;4.10;99.90;;;2.87;100.00;96907.25;5034196;28;20413;-72
2023/03/27 04:37:43;;;;;;;65.22;18.95;;;4.00;99.90;;;2.86;100.00;96912.69;5034125;28;20911;-73
2023/03/27 04:40:13;;;;;;;59.83;16.17;;;4.10;99.90;;;2.87;100.00;96920.31;5033971;28;20447;-75
2023/03/27 04:42:41;;;;;;;52.90;15.77;;;4.10;99.90;;;2.89;100.00;96928.75;5033690;28;20413;-74
2023/03/27 04:45:11;;;;;;;53.90;15.45;;;4.10;99.90;;;2.78;100.00;96923.44;5034005;28;20958;-74
2023/03/27 04:47:37;;;;;;;49.53;12.93;;;4.00;99.90;;;2.70;100.00;96922.69;5033783;28;20410;-74
2023/03/27 04:50:06;;;;;;;54.50;14.02;;;3.90;99.90;;;2.74;100.00;96928.25;5030703;28;20468;-74
2023/03/27 04:52:32;;;;;;;55.78;13.77;;;3.90;99.90;;;2.70;100.00;96945.38;5040851;28;20884;-75
2023/03/27 04:54:59;;;;;;;43.65;11.95;;;3.90;99.90;;;2.50;100.00;96955.94;5031901;28;20912;-74
2023/03/27 04:57:27;;;;;;;53.97;11.88;;;3.70;99.90;;;2.44;100.00;96966.44;5042991;28;20403;-74
2023/03/27 04:59:53;;;;;;;47.58;11.13;;;3.60;99.90;;;2.43;100.00;96955.19;5049057;28;20479;-74
2023/03/27 05:02:20;;;;;;;56.95;11.73;;;3.60;99.90;;;2.43;100.00;96972.69;5038430;28;20502;-74
2023/03/27 05:04:47;;;;;;;43.90;11.10;;;3.60;99.90;;;2.37;100.00;96979.53;5030252;28;20438;-73
2023/03/27 05:07:14;;;;;;;46.45;10.60;;;3.60;99.90;;;2.38;100.00;96977.72;5029680;28;20798;-74
2023/03/27 05:09:40;;;;;;;36.40;9.85;;;3.50;99.90;;;2.30;100.00;96984.00;5029342;28;20419;-73
2023/03/27 05:12:06;;;;;;;44.20;10.38;;;3.50;99.90;;;2.21;100.00;96980.81;5041941;28;20446;-73
2023/03/27 05:14:33;;;;;;;41.85;10.35;;;3.40;99.90;;;2.13;100.00;97001.13;5053195;28;20413;-74
2023/03/27 05:16:59;;;;;;;35.22;10.20;;;3.40;99.90;;;2.10;100.00;97012.00;5052960;28;20409;-74
2023/03/27 05:19:25;;;;;;;43.73;10.87;;;3.40;99.90;;;2.19;100.00;97019.38;5053118;28;20412;-74
2023/03/27 05:21:51;;;;;;;45.63;10.82;;;3.40;99.90;;;2.14;100.00;97026.25;5052788;28;20417;-73
2023/03/27 05:24:18;;;;;;;46.10;10.55;;;3.30;99.90;;;2.09;100.00;97026.06;5053269;28;20455;-74
2023/03/27 05:26:44;;;;;;;37.65;10.50;;;3.30;99.90;;;2.03;100.00;97039.94;5053153;28;20498;-74
2023/03/27 05:29:10;;;;;;;40.80;11.07;;;3.30;99.90;;;2.04;100.00;97044.94;5053382;28;20485;-74
2023/03/27 05:31:38;;;;;;;44.77;9.93;;;3.20;99.90;;;2.02;100.00;97057.41;5052766;28;20496;-74
2023/03/27 05:34:04;;;;;;;53.10;11.70;;;3.20;99.90;;;2.03;100.00;97055.63;5052962;28;20512;-74
2023/03/27 05:36:31;;;;;;;38.00;11.50;;;3.20;99.90;;;2.03;100.00;97061.59;5035127;28;20455;-74
2023/03/27 05:38:57;;;;;;;42.00;11.35;;;3.30;99.90;;;1.98;100.00;97071.88;5052943;28;20416;-74
2023/03/27 05:41:23;;;;;;;42.42;10.95;;;3.20;99.90;;;2.00;100.00;97077.69;5052663;28;20855;-74
2023/03/27 05:43:50;;;;;;;38.22;10.38;;;3.30;99.90;;;2.03;100.00;97084.31;5052325;28;20397;-74
2023/03/27 05:46:16;;;;;;;42.90;11.27;;;3.30;99.90;;;2.01;100.00;97086.34;5052802;28;20748;-74
2023/03/27 05:48:44;;;;;;;41.53;10.95;;;3.30;99.90;;;2.14;100.00;97092.31;5052774;28;20406;-74
2023/03/27 05:51:10;;;;;;;44.95;12.15;;;3.40;99.90;;;2.08;100.00;97087.13;5052583;28;20408;-74
2023/03/27 05:53:38;;;;;;;45.65;11.32;;;3.30;99.90;;;2.04;100.00;97091.94;5052368;28;20417;-74
2023/03/27 05:56:05;;;;;;;47.22;10.75;;;3.30;99.90;;;2.01;100.00;97104.59;5052687;28;20401;-74
2023/03/27 05:58:32;;;;;;;51.97;11.35;;;3.30;99.90;;;1.99;100.00;97102.19;5052695;28;20871;-74
2023/03/27 06:00:58;;;;;;;37.30;10.40;;;3.20;99.90;;;1.90;100.00;97106.00;5052450;28;20408;-74
2023/03/27 06:03:24;;;;;;;42.58;10.48;;;3.10;99.90;;;1.81;100.00;97121.06;5052272;28;20492;-74
2023/03/27 06:05:51;;;;;;;38.77;10.67;;;3.10;99.90;;;1.86;100.00;97121.28;5052465;28;20405;-74
2023/03/27 06:08:18;;;;;;;50.55;10.25;;;3.10;99.90;;;1.78;100.00;97126.72;5052472;28;20405;-74
2023/03/27 06:10:44;;;;;;;35.37;9.63;;;3.00;99.90;;;1.79;100.00;97138.75;5052308;28;20405;-74
2023/03/27 06:13:12;;;;;;;33.83;10.18;;;3.00;99.90;;;1.84;100.00;97132.94;5052005;28;20413;-74
2023/03/27 06:15:41;;;;;;;48.65;10.30;;;3.00;99.90;;;1.88;100.00;97142.75;5052278;28;20425;-74
2023/03/27 06:18:08;;;;;;;42.63;9.70;;;3.10;99.90;;;1.85;100.00;97152.81;5052197;28;20397;-74
2023/03/27 06:20:34;;;;;;;41.85;9.90;;;3.10;99.90;;;1.85;100.00;97158.81;5052048;28;20404;-75
2023/03/27 06:23:02;;;;;;;37.15;10.52;;;3.00;99.90;;;1.86;100.00;97167.47;5051935;28;20432;-74
2023/03/27 06:25:32;;;;;;;38.60;10.55;;;3.10;99.90;;;1.90;100.00;97168.66;5052091;28;20934;-74
2023/03/27 06:27:58;;;;;;;36.25;10.13;;;3.10;99.90;;;1.92;100.00;97177.09;5052074;28;20811;-73
2023/03/27 06:30:26;;;;;;;42.97;9.40;;;3.10;99.90;;;1.70;100.00;97175.69;5051855;28;20405;-74
2023/03/27 06:32:56;;;;;;;38.50;8.98;;;2.90;99.90;;;1.74;100.00;97190.72;5051645;28;20899;-74
2023/03/27 06:35:24;;;;;;;46.40;10.05;;;3.00;99.90;;;1.80;100.00;97194.38;5051796;28;20398;-74
2023/03/27 06:37:52;;;;;;;31.42;8.98;;;3.00;99.90;;;1.84;100.00;97204.19;5051771;28;20421;-74
2023/03/27 06:40:24;;;;;;;39.28;9.57;;;3.00;99.90;;;1.83;100.00;97201.78;5051864;28;20400;-74
2023/03/27 06:42:53;;;;;;;33.63;8.73;;;3.00;99.90;;;1.90;100.00;97206.00;5051495;28;20405;-74
2023/03/27 06:45:19;;;;;;;38.58;9.13;;;3.00;99.90;;;1.77;100.00;97208.59;5051703;28;20891;-74
2023/03/27 06:47:49;;;;;;;42.20;9.32;;;3.00;99.90;;;1.86;100.00;97209.22;5051739;28;20826;-74
2023/03/27 06:50:16;;;;;;;31.58;9.55;;;3.10;99.90;;;1.93;100.00;97221.25;5051848;28;20708;-74
2023/03/27 06:52:42;;;;;;;33.73;9.13;;;3.10;99.90;;;1.97;100.00;97231.28;5051184;28;20489;-74
2023/03/27 06:55:09;;;;;;;45.60;9.05;;;3.10;99.90;;;1.82;100.00;97236.69;5050549;28;20786;-74
2023/03/27 06:57:42;;;;;;;40.58;8.50;;;3.10;99.90;;;1.79;100.00;97253.56;5051437;28;20399;-74
2023/03/27 07:00:11;;;;;;;30.43;8.93;;;3.00;99.90;;;1.77;100.00;97254.75;5051433;28;20408;-75
2023/03/27 07:02:37;;;;;;;41.10;9.02;;;3.00;99.90;;;1.78;100.00;97256.38;5050900;28;20398;-74
2023/03/27 07:05:05;;;;;;;26.88;8.50;;;3.00;99.90;;;1.82;100.00;97253.16;5050994;28;20397;-74
2023/03/27 07:07:30;;;;;;;44.95;9.68;;;3.10;99.90;;;1.94;100.00;97269.84;5051214;28;20432;-74
2023/03/27 07:09:57;;;;;;;40.47;9.32;;;3.10;99.90;;;2.01;100.00;97271.66;5051176;28;20409;-74
2023/03/27 07:12:24;;;;;;;47.50;9.35;;;3.20;99.90;;;2.09;100.00;97276.69;5050570;28;20492;-75
2023/03/27 07:14:51;;;;;;;39.75;9.55;;;3.20;99.90;;;2.17;100.00;97279.91;5050888;28;20531;-74
2023/03/27 07:17:18;;;;;;;37.07;9.13;;;3.30;99.90;;;2.03;100.00;97286.09;5042956;28;20418;-74
2023/03/27 07:19:43;;;;;;;41.63;8.82;;;3.20;99.90;;;2.09;100.00;97287.94;5027063;28;20421;-74
2023/03/27 07:22:09;;;;;;;39.25;8.95;;;3.30;99.90;;;2.23;100.00;97296.59;5023528;28;20447;-76
2023/03/27 07:24:35;;;;;;;40.63;8.17;;;3.40;99.90;;;2.28;100.00;97299.38;5026144;28;20963;-76
2023/03/27 07:27:01;;;;;;;44.90;8.35;;;3.40;99.90;;;2.37;100.00;97306.03;5027662;28;20498;-79
2023/03/27 07:29:27;;;;;;;33.55;8.40;;;3.50;99.90;;;2.49;100.00;97309.63;5033284;28;20449;-76
2023/03/27 07:31:55;;;;;;;33.13;7.75;;;3.60;99.90;;;2.54;100.00;97315.06;5028298;28;20411;-77
2023/03/27 07:34:21;;;;;;;43.08;8.90;;;3.70;99.90;;;2.72;100.00;97309.22;5008333;28;20441;-77
2023/03/27 07:36:47;;;;;;;35.67;9.07;;;3.80;99.90;;;2.80;100.00;97308.19;5025645;28;20411;-77
2023/03/27 07:39:13;;;;;;;33.42;8.43;;;3.90;99.90;;;2.87;100.00;97315.03;5030264;28;20401;-78
2023/03/27 07:41:39;;;;;;;43.15;8.40;;;4.00;99.90;;;2.93;100.00;97323.88;5030003;28;20430;-76
2023/03/27 07:44:05;;;;;;;34.30;7.33;;;4.00;99.90;;;2.96;100.00;97319.03;5029820;28;20403;-75
2023/03/27 07:46:31;;;;;;;24.98;7.07;;;4.10;99.90;;;2.97;100.00;97341.56;5026871;28;20413;-74
2023/03/27 07:48:59;;;;;;;35.00;7.50;;;4.10;99.90;;;2.94;100.00;97334.09;5030890;28;20406;-76
2023/03/27 07:51:26;;;;;;;28.37;7.53;;;4.10;99.90;;;2.89;100.00;97352.22;5028357;28;20478;-76
2023/03/27 07:53:57;;;;;;;33.78;6.82;;;4.10;99.90;;;2.87;100.00;97361.28;5026765;28;20425;-77
2023/03/27 07:56:25;;;;;;;34.35;7.40;;;4.00;99.90;;;2.91;100.00;97365.09;5026878;28;20446;-76
2023/03/27 07:58:52;;;;;;;27.70;7.03;;;4.00;99.90;;;2.89;100.00;97372.34;5025194;28;20453;-76
2023/03/27 08:01:17;;;;;;;31.35;7.20;;;4.00;99.90;;;2.82;100.00;97368.94;5026374;28;20817;-76
2023/03/27 08:03:43;;;;;;;31.30;6.83;;;4.00;99.90;;;2.68;100.00;97386.41;5027040;28;20494;-75
2023/03/27 08:06:11;;;;;;;30.30;6.93;;;3.80;99.90;;;2.65;100.00;97386.81;5027010;28;20996;-75
2023/03/27 08:08:37;;;;;;;33.78;7.43;;;3.80;99.90;;;2.64;100.00;97393.03;5027144;28;20912;-75
2023/03/27 08:11:03;;;;;;;33.95;7.13;;;3.70;99.90;;;2.50;100.00;97407.91;5025346;28;20529;-75
2023/03/27 08:13:29;;;;;;;21.27;6.60;;;3.60;99.90;;;2.50;100.00;97409.72;5027028;28;20475;-76
2023/03/27 08:16:03;;;;;;;28.80;7.32;;;3.70;99.90;;;2.46;100.00;97408.50;5026484;28;20417;-77
2023/03/27 08:18:29;;;;;;;27.00;8.00;;;3.60;99.90;;;2.50;100.00;97417.56;5014680;28;20796;-75
2023/03/27 08:20:56;;;;;;;28.83;7.40;;;3.60;99.90;;;2.68;100.00;97409.94;5010366;28;20521;-75
2023/03/27 08:23:26;;;;;;;27.30;6.57;;;3.70;99.90;;;2.67;100.00;97421.41;5028445;28;20481;-77
2023/03/27 08:25:52;;;;;;;30.45;7.10;;;3.80;99.90;;;2.80;100.00;97428.44;5025085;28;20431;-76
2023/03/27 08:28:19;;;;;;;33.63;7.18;;;3.90;99.90;;;2.92;100.00;97425.03;5028483;28;20419;-77
2023/03/27 08:30:45;;;;;;;27.73;7.35;;;4.00;99.90;;;3.05;100.00;97430.25;5026309;28;20470;-74
2023/03/27 08:33:11;;;;;;;30.20;6.30;;;4.20;99.90;;;3.04;100.00;97430.44;5027878;28;20435;-75
2023/03/27 08:35:37;;;;;;;28.60;6.18;;;4.20;99.90;;;3.16;100.00;97430.66;5027377;28;20884;-74
2023/03/27 08:38:03;;;;;;;22.77;5.30;;;4.20;99.90;;;3.19;100.00;97428.44;5025920;28;20411;-78
2023/03/27 08:40:32;;;;;;;18.58;5.35;;;4.30;99.90;;;3.32;100.00;97431.03;5027513;28;20422;-76
2023/03/27 08:43:05;;;;;;;22.65;5.35;;;4.40;99.90;;;3.42;100.00;97438.47;5028914;28;20418;-78
2023/03/27 08:45:41;;;;;;;27.10;5.35;;;4.50;99.90;;;3.49;100.00;97454.94;5026551;28;20504;-78
2023/03/27 08:48:15;;;;;;;26.17;5.85;;;4.60;99.90;;;3.56;100.00;97442.66;5028123;28;20884;-78
2023/03/27 08:50:47;;;;;;;20.02;4.20;;;4.60;99.90;;;3.61;100.00;97445.44;5026116;28;20967;-80
2023/03/27 08:53:21;;;;;;;18.25;4.63;;;4.60;99.90;;;3.57;100.00;97446.06;5027783;28;20484;-77
2023/03/27 08:55:48;;;;;;;17.50;4.77;;;4.70;99.90;;;3.63;100.00;97453.09;5029810;28;20822;-78
2023/03/27 08:58:18;;;;;;;21.10;5.07;;;4.70;99.90;;;3.67;100.00;97468.22;5027758;28;20422;-76
2023/03/27 09:00:52;;;;;;;24.23;4.95;;;4.70;99.90;;;3.81;100.00;97461.13;5029190;28;20445;-77
2023/03/27 09:03:24;;;;;;;18.75;4.65;;;4.90;99.90;;;3.92;100.00;97468.31;5027233;28;20484;-73
2023/03/27 09:05:56;;;;;;;17.38;4.10;;;5.00;99.90;;;3.92;100.00;97470.94;5028802;28;20567;-75
2023/03/27 09:08:36;;;;;;;16.83;4.57;;;4.90;99.90;;;4.19;100.00;97474.28;5026737;28;20571;-74
2023/03/27 09:11:18;;;;;;;11.85;3.78;;;5.10;99.90;;;4.20;100.00;97483.75;5026390;28;20464;-76
2023/03/27 09:13:47;;;;;;;14.43;4.38;;;5.30;99.90;;;4.33;100.00;97483.69;5027241;28;20468;-73
2023/03/27 09:16:20;;;;;;;19.05;3.85;;;5.30;99.90;;;4.30;100.00;97489.34;5029434;28;20904;-75
2023/03/27 09:18:55;;;;;;;24.80;4.20;;;5.30;99.90;;;4.38;100.00;97489.09;5029765;28;21002;-75
2023/03/27 09:21:30;;;;;;;14.73;3.67;;;5.40;99.90;;;4.45;100.00;97496.91;5029987;28;20494;-75
2023/03/27 09:24:00;;;;;;;13.98;3.78;;;5.50;99.90;;;4.70;100.00;97494.38;5029452;28;20457;-73
2023/03/27 09:26:33;;;;;;;21.02;4.50;;;5.70;99.90;;;4.64;100.00;97494.22;5030613;28;20421;-73
2023/03/27 09:29:02;;;;;;;11.88;3.70;;;5.70;99.90;;;4.74;100.00;97503.41;5027643;28;20414;-73
2023/03/27 09:31:32;;;;;;;13.98;3.65;;;5.80;99.90;;;4.91;100.00;97501.91;5030977;28;20471;-76
2023/03/27 09:34:01;;;;;;;13.45;3.75;;;5.90;99.90;;;5.28;100.00;97487.91;5030475;28;20418;-72
2023/03/27 09:36:27;;;;;;;11.63;3.20;;;6.10;99.90;;;5.47;100.00;97498.47;5029852;28;20904;-75
2023/03/27 09:39:01;;;;;;;9.32;2.97;;;6.30;99.90;;;5.71;100.00;97493.16;5031821;28;21168;-75
2023/03/27 09:41:33;;;;;;;12.50;3.40;;;6.60;99.90;;;5.79;100.00;97510.47;5031469;28;20451;-76
2023/03/27 09:44:05;;;;;;;12.10;3.60;;;6.70;99.90;;;5.69;100.00;97502.28;5027393;28;20423;-76
2023/03/27 09:46:35;;;;;;;15.25;3.20;;;6.70;99.90;;;5.75;100.00;97506.66;5027758;28;20439;-79
2023/03/27 09:49:10;;;;;;;18.17;4.00;;;6.70;99.90;;;5.69;100.00;97523.31;5030510;28;20418;-77
2023/03/27 09:51:43;;;;;;;19.92;3.70;;;6.70;99.90;;;5.78;100.00;97516.75;5030645;28;20908;-76
2023/03/27 09:54:13;;;;;;;11.27;3.10;;;6.70;99.90;;;5.73;100.00;97519.22;5029821;28;20419;-75
2023/03/27 09:56:45;;;;;;;10.68;2.55;;;6.70;99.90;;;5.91;100.00;97521.91;5029770;28;20415;-76
2023/03/27 09:59:23;;;;;;;15.25;3.00;;;6.80;99.90;;;6.25;100.00;97543.34;5031043;28;20449;-77
2023/03/27 10:01:51;;;;;;;9.68;3.55;;;7.10;99.90;;;6.16;100.00;97535.75;5028961;28;20415;-77
2023/03/27 10:04:20;;;;;;;12.20;3.08;;;7.10;99.90;;;6.45;100.00;97534.25;5028205;28;20443;-76
2023/03/27 10:06:50;;;;;;;10.15;3.28;;;7.30;99.90;;;6.55;100.00;97533.69;5032480;28;20462;-77
2023/03/27 10:09:23;;;;;;;11.23;3.00;;;7.40;99.90;;;6.91;100.00;97531.00;5032324;28;20438;-77
2023/03/27 10:12:00;;;;;;;11.35;3.72;;;7.80;99.90;;;7.01;100.00;97540.97;5030689;28;20418;-77
2023/03/27 10:14:28;;;;;;;8.98;2.60;;;8.10;99.90;;;7.60;100.00;97532.16;5030139;28;20415;-78
2023/03/27 10:16:54;;;;;;;10.65;3.58;;;8.50;99.90;;;8.27;100.00;97555.53;5028808;28;20923;-78
2023/03/27 10:19:26;;;;;;;10.32;3.10;;;9.10;99.90;;;8.30;100.00;97552.41;5029305;28;20426;-77
2023/03/27 10:21:53;;;;;;;12.10;3.17;;;9.40;99.90;;;7.94;100.00;97548.22;5029162;28;20797;-78
2023/03/27 10:24:30;;;;;;;15.95;3.40;;;9.10;99.90;;;7.93;100.00;97551.88;5032165;28;20426;-78
2023/03/27 10:27:00;;;;;;;9.02;2.65;;;8.90;99.90;;;8.44;100.00;97559.06;5032272;28;20391;-78
2023/03/27 10:29:30;;;;;;;7.75;2.47;;;9.20;99.90;;;8.90;100.00;97551.00;5032351;28;20415;-78